sensor_id;sensor_type;location;lat;lon;timestamp;P1;durP1;ratioP1;P2;durP2;ratioP2
14619;SDS011;32125;48.518;9.050;2022-10-16T00:01:32;4.83;;;2.50;;
14619;SDS011;32125;48.518;9.050;2022-10-16T00:03:58;3.53;;;2.30;;
14619;SDS011;32125;48.518;9.050;2022-10-16T00:06:31;6.03;;;2.60;;
14619;SDS011;32125;48.518;9.050;2022-10-16T00:08:59;3.23;;;2.53;;
14619;SDS011;32125;48.518;9.050;2022-10-16T00:11:27;4.77;;;2.90;;
14619;SDS011;32125;48.518;9.050;2022-10-16T00:13:57;3.97;;;2.63;;
14619;SDS011;32125;48.518;9.050;2022-10-16T00:16:24;5.73;;;2.77;;
14619;SDS011;32125;48.518;9.050;2022-10-16T00:18:50;6.43;;;2.33;;
14619;SDS011;32125;48.518;9.050;2022-10-16T00:21:17;5.57;;;3.07;;
14619;SDS011;32125;48.518;9.050;2022-10-16T00:23:45;6.37;;;2.97;;
14619;SDS011;32125;48.518;9.050;2022-10-16T00:26:13;5.67;;;2.93;;
14619;SDS011;32125;48.518;9.050;2022-10-16T00:28:40;7.00;;;2.73;;
14619;SDS011;32125;48.518;9.050;2022-10-16T00:31:09;3.00;;;2.80;;
14619;SDS011;32125;48.518;9.050;2022-10-16T00:33:36;5.63;;;2.80;;
14619;SDS011;32125;48.518;9.050;2022-10-16T00:36:03;4.77;;;2.93;;
14619;SDS011;32125;48.518;9.050;2022-10-16T00:38:30;5.80;;;3.20;;
14619;SDS011;32125;48.518;9.050;2022-10-16T00:40:59;4.23;;;2.97;;
14619;SDS011;32125;48.518;9.050;2022-10-16T00:43:59;6.07;;;3.00;;
14619;SDS011;32125;48.518;9.050;2022-10-16T00:46:37;4.93;;;3.10;;
14619;SDS011;32125;48.518;9.050;2022-10-16T00:51:40;5.87;;;3.20;;
14619;SDS011;32125;48.518;9.050;2022-10-16T00:54:10;4.27;;;3.10;;
14619;SDS011;32125;48.518;9.050;2022-10-16T00:56:37;5.30;;;3.20;;
14619;SDS011;32125;48.518;9.050;2022-10-16T00:59:03;4.67;;;3.60;;
14619;SDS011;32125;48.518;9.050;2022-10-16T01:01:35;5.00;;;3.00;;
14619;SDS011;32125;48.518;9.050;2022-10-16T01:04:04;6.03;;;3.20;;
14619;SDS011;32125;48.518;9.050;2022-10-16T01:09:43;5.73;;;2.57;;
14619;SDS011;32125;48.518;9.050;2022-10-16T01:11:57;4.20;;;2.77;;
14619;SDS011;32125;48.518;9.050;2022-10-16T01:17:23;8.33;;;3.10;;
14619;SDS011;32125;48.518;9.050;2022-10-16T01:22:21;5.47;;;2.90;;
14619;SDS011;32125;48.518;9.050;2022-10-16T01:24:54;5.03;;;2.67;;
14619;SDS011;32125;48.518;9.050;2022-10-16T01:27:22;5.40;;;2.70;;
14619;SDS011;32125;48.518;9.050;2022-10-16T01:34:52;4.27;;;2.80;;
14619;SDS011;32125;48.518;9.050;2022-10-16T01:38:25;5.27;;;2.73;;
14619;SDS011;32125;48.518;9.050;2022-10-16T01:40:22;4.57;;;2.80;;
14619;SDS011;32125;48.518;9.050;2022-10-16T01:43:01;3.57;;;2.73;;
14619;SDS011;32125;48.518;9.050;2022-10-16T01:45:31;5.50;;;2.63;;
14619;SDS011;32125;48.518;9.050;2022-10-16T01:48:00;4.60;;;2.60;;
14619;SDS011;32125;48.518;9.050;2022-10-16T01:50:29;4.57;;;3.23;;
14619;SDS011;32125;48.518;9.050;2022-10-16T01:52:58;6.07;;;2.70;;
14619;SDS011;32125;48.518;9.050;2022-10-16T01:55:28;4.00;;;3.27;;
14619;SDS011;32125;48.518;9.050;2022-10-16T01:57:57;4.20;;;2.90;;
14619;SDS011;32125;48.518;9.050;2022-10-16T02:00:24;6.10;;;3.00;;
14619;SDS011;32125;48.518;9.050;2022-10-16T02:02:51;5.83;;;2.90;;
14619;SDS011;32125;48.518;9.050;2022-10-16T02:05:26;4.83;;;2.83;;
14619;SDS011;32125;48.518;9.050;2022-10-16T02:08:06;5.40;;;3.03;;
14619;SDS011;32125;48.518;9.050;2022-10-16T02:10:32;5.83;;;3.07;;
14619;SDS011;32125;48.518;9.050;2022-10-16T02:13:02;3.33;;;2.80;;
14619;SDS011;32125;48.518;9.050;2022-10-16T02:15:33;6.00;;;2.90;;
14619;SDS011;32125;48.518;9.050;2022-10-16T02:17:59;10.93;;;2.90;;
14619;SDS011;32125;48.518;9.050;2022-10-16T02:20:28;7.90;;;3.10;;
14619;SDS011;32125;48.518;9.050;2022-10-16T02:22:57;8.93;;;3.20;;
14619;SDS011;32125;48.518;9.050;2022-10-16T02:25:30;8.27;;;3.13;;
14619;SDS011;32125;48.518;9.050;2022-10-16T02:30:36;4.10;;;2.70;;
14619;SDS011;32125;48.518;9.050;2022-10-16T02:33:14;7.97;;;2.83;;
14619;SDS011;32125;48.518;9.050;2022-10-16T02:35:41;5.83;;;2.90;;
14619;SDS011;32125;48.518;9.050;2022-10-16T02:38:09;4.67;;;2.70;;
14619;SDS011;32125;48.518;9.050;2022-10-16T02:40:38;5.30;;;2.73;;
14619;SDS011;32125;48.518;9.050;2022-10-16T02:43:04;4.17;;;2.77;;
14619;SDS011;32125;48.518;9.050;2022-10-16T02:45:31;5.10;;;2.70;;
14619;SDS011;32125;48.518;9.050;2022-10-16T02:47:57;4.27;;;2.50;;
14619;SDS011;32125;48.518;9.050;2022-10-16T02:50:23;11.30;;;2.93;;
14619;SDS011;32125;48.518;9.050;2022-10-16T02:52:52;7.10;;;2.80;;
14619;SDS011;32125;48.518;9.050;2022-10-16T02:55:18;4.97;;;2.80;;
14619;SDS011;32125;48.518;9.050;2022-10-16T02:57:44;4.90;;;2.90;;
14619;SDS011;32125;48.518;9.050;2022-10-16T03:00:14;9.63;;;3.03;;
14619;SDS011;32125;48.518;9.050;2022-10-16T03:02:40;6.03;;;3.10;;
14619;SDS011;32125;48.518;9.050;2022-10-16T03:05:09;4.80;;;3.00;;
14619;SDS011;32125;48.518;9.050;2022-10-16T03:07:35;5.67;;;2.70;;
14619;SDS011;32125;48.518;9.050;2022-10-16T03:10:01;7.63;;;3.00;;
14619;SDS011;32125;48.518;9.050;2022-10-16T03:12:28;7.13;;;2.90;;
14619;SDS011;32125;48.518;9.050;2022-10-16T03:14:55;5.50;;;2.83;;
14619;SDS011;32125;48.518;9.050;2022-10-16T03:17:23;4.37;;;3.03;;
14619;SDS011;32125;48.518;9.050;2022-10-16T03:19:49;6.30;;;2.73;;
14619;SDS011;32125;48.518;9.050;2022-10-16T03:22:15;5.30;;;3.30;;
14619;SDS011;32125;48.518;9.050;2022-10-16T03:24:41;4.23;;;2.90;;
14619;SDS011;32125;48.518;9.050;2022-10-16T03:27:07;7.63;;;2.60;;
14619;SDS011;32125;48.518;9.050;2022-10-16T03:29:33;8.03;;;2.73;;
14619;SDS011;32125;48.518;9.050;2022-10-16T03:31:59;6.83;;;2.60;;
14619;SDS011;32125;48.518;9.050;2022-10-16T03:34:25;3.90;;;2.40;;
14619;SDS011;32125;48.518;9.050;2022-10-16T03:36:51;4.90;;;2.77;;
14619;SDS011;32125;48.518;9.050;2022-10-16T03:39:17;4.30;;;2.70;;
14619;SDS011;32125;48.518;9.050;2022-10-16T03:41:46;6.47;;;2.60;;
14619;SDS011;32125;48.518;9.050;2022-10-16T03:44:12;7.10;;;2.47;;
14619;SDS011;32125;48.518;9.050;2022-10-16T03:46:38;4.63;;;2.50;;
14619;SDS011;32125;48.518;9.050;2022-10-16T03:49:04;4.80;;;2.57;;
14619;SDS011;32125;48.518;9.050;2022-10-16T03:51:31;4.47;;;2.60;;
14619;SDS011;32125;48.518;9.050;2022-10-16T03:53:59;5.30;;;2.30;;
14619;SDS011;32125;48.518;9.050;2022-10-16T03:56:25;6.10;;;2.70;;
14619;SDS011;32125;48.518;9.050;2022-10-16T03:58:51;6.97;;;2.70;;
14619;SDS011;32125;48.518;9.050;2022-10-16T04:01:22;3.80;;;2.30;;
14619;SDS011;32125;48.518;9.050;2022-10-16T04:03:48;9.63;;;2.50;;
14619;SDS011;32125;48.518;9.050;2022-10-16T04:06:14;7.33;;;2.67;;
14619;SDS011;32125;48.518;9.050;2022-10-16T04:08:42;3.67;;;2.43;;
14619;SDS011;32125;48.518;9.050;2022-10-16T04:11:10;5.50;;;2.60;;
14619;SDS011;32125;48.518;9.050;2022-10-16T04:13:36;3.60;;;2.50;;
14619;SDS011;32125;48.518;9.050;2022-10-16T04:16:04;5.27;;;2.50;;
14619;SDS011;32125;48.518;9.050;2022-10-16T04:18:31;3.73;;;2.40;;
14619;SDS011;32125;48.518;9.050;2022-10-16T04:20:56;3.33;;;2.70;;
14619;SDS011;32125;48.518;9.050;2022-10-16T04:23:27;5.43;;;2.87;;
14619;SDS011;32125;48.518;9.050;2022-10-16T04:25:53;5.77;;;2.47;;
14619;SDS011;32125;48.518;9.050;2022-10-16T04:28:22;4.93;;;2.20;;
14619;SDS011;32125;48.518;9.050;2022-10-16T04:30:48;6.83;;;2.87;;
14619;SDS011;32125;48.518;9.050;2022-10-16T04:33:14;6.57;;;2.50;;
14619;SDS011;32125;48.518;9.050;2022-10-16T04:35:40;6.20;;;2.73;;
14619;SDS011;32125;48.518;9.050;2022-10-16T04:38:06;6.17;;;2.70;;
14619;SDS011;32125;48.518;9.050;2022-10-16T04:40:32;5.83;;;2.70;;
14619;SDS011;32125;48.518;9.050;2022-10-16T04:43:00;8.73;;;2.53;;
14619;SDS011;32125;48.518;9.050;2022-10-16T04:45:27;3.20;;;2.37;;
14619;SDS011;32125;48.518;9.050;2022-10-16T04:47:53;5.93;;;2.40;;
14619;SDS011;32125;48.518;9.050;2022-10-16T04:50:22;4.10;;;2.40;;
14619;SDS011;32125;48.518;9.050;2022-10-16T04:52:48;6.20;;;2.13;;
14619;SDS011;32125;48.518;9.050;2022-10-16T04:55:14;3.80;;;2.53;;
14619;SDS011;32125;48.518;9.050;2022-10-16T04:57:40;5.00;;;2.13;;
14619;SDS011;32125;48.518;9.050;2022-10-16T05:00:07;6.20;;;2.30;;
14619;SDS011;32125;48.518;9.050;2022-10-16T05:02:33;8.73;;;2.20;;
14619;SDS011;32125;48.518;9.050;2022-10-16T05:05:01;3.33;;;2.30;;
14619;SDS011;32125;48.518;9.050;2022-10-16T05:07:27;8.40;;;2.53;;
14619;SDS011;32125;48.518;9.050;2022-10-16T05:09:55;8.03;;;2.50;;
14619;SDS011;32125;48.518;9.050;2022-10-16T05:12:21;5.47;;;2.50;;
14619;SDS011;32125;48.518;9.050;2022-10-16T05:14:47;7.33;;;2.50;;
14619;SDS011;32125;48.518;9.050;2022-10-16T05:17:16;6.40;;;2.77;;
14619;SDS011;32125;48.518;9.050;2022-10-16T05:19:44;4.43;;;2.70;;
14619;SDS011;32125;48.518;9.050;2022-10-16T05:22:10;3.97;;;2.70;;
14619;SDS011;32125;48.518;9.050;2022-10-16T05:24:38;3.77;;;2.70;;
14619;SDS011;32125;48.518;9.050;2022-10-16T05:27:04;4.57;;;3.27;;
14619;SDS011;32125;48.518;9.050;2022-10-16T05:29:30;3.80;;;2.80;;
14619;SDS011;32125;48.518;9.050;2022-10-16T05:31:57;7.17;;;2.80;;
14619;SDS011;32125;48.518;9.050;2022-10-16T05:34:23;5.27;;;2.60;;
14619;SDS011;32125;48.518;9.050;2022-10-16T05:36:48;5.13;;;2.90;;
14619;SDS011;32125;48.518;9.050;2022-10-16T05:39:15;7.40;;;2.70;;
14619;SDS011;32125;48.518;9.050;2022-10-16T05:41:41;3.13;;;2.83;;
14619;SDS011;32125;48.518;9.050;2022-10-16T05:44:07;4.37;;;2.50;;
14619;SDS011;32125;48.518;9.050;2022-10-16T05:46:34;4.60;;;2.90;;
14619;SDS011;32125;48.518;9.050;2022-10-16T05:48:59;4.00;;;2.80;;
14619;SDS011;32125;48.518;9.050;2022-10-16T05:51:27;5.37;;;3.27;;
14619;SDS011;32125;48.518;9.050;2022-10-16T05:53:53;6.17;;;3.23;;
14619;SDS011;32125;48.518;9.050;2022-10-16T05:56:19;8.67;;;3.03;;
14619;SDS011;32125;48.518;9.050;2022-10-16T05:58:48;6.57;;;2.43;;
14619;SDS011;32125;48.518;9.050;2022-10-16T06:04:29;9.97;;;2.63;;
14619;SDS011;32125;48.518;9.050;2022-10-16T06:07:02;4.63;;;2.37;;
14619;SDS011;32125;48.518;9.050;2022-10-16T06:09:28;7.03;;;2.53;;
14619;SDS011;32125;48.518;9.050;2022-10-16T06:11:54;5.03;;;2.47;;
14619;SDS011;32125;48.518;9.050;2022-10-16T06:14:20;3.60;;;2.50;;
14619;SDS011;32125;48.518;9.050;2022-10-16T06:16:46;8.03;;;2.50;;
14619;SDS011;32125;48.518;9.050;2022-10-16T06:19:12;5.70;;;2.43;;
14619;SDS011;32125;48.518;9.050;2022-10-16T06:21:38;6.37;;;2.17;;
14619;SDS011;32125;48.518;9.050;2022-10-16T06:24:04;4.40;;;2.40;;
14619;SDS011;32125;48.518;9.050;2022-10-16T06:26:31;4.33;;;2.53;;
14619;SDS011;32125;48.518;9.050;2022-10-16T06:28:58;4.43;;;2.17;;
14619;SDS011;32125;48.518;9.050;2022-10-16T06:31:24;4.80;;;1.97;;
14619;SDS011;32125;48.518;9.050;2022-10-16T06:33:55;8.70;;;2.53;;
14619;SDS011;32125;48.518;9.050;2022-10-16T06:36:22;3.40;;;2.20;;
14619;SDS011;32125;48.518;9.050;2022-10-16T06:38:48;1.93;;;1.73;;
14619;SDS011;32125;48.518;9.050;2022-10-16T06:41:21;4.73;;;2.13;;
14619;SDS011;32125;48.518;9.050;2022-10-16T06:44:10;2.40;;;1.90;;
14619;SDS011;32125;48.518;9.050;2022-10-16T06:46:36;5.67;;;1.90;;
14619;SDS011;32125;48.518;9.050;2022-10-16T06:49:02;6.13;;;2.00;;
14619;SDS011;32125;48.518;9.050;2022-10-16T06:54:15;3.87;;;1.67;;
14619;SDS011;32125;48.518;9.050;2022-10-16T06:57:00;7.07;;;1.90;;
14619;SDS011;32125;48.518;9.050;2022-10-16T06:59:26;8.53;;;2.10;;
14619;SDS011;32125;48.518;9.050;2022-10-16T07:01:55;5.40;;;2.20;;
14619;SDS011;32125;48.518;9.050;2022-10-16T07:04:21;3.87;;;2.33;;
14619;SDS011;32125;48.518;9.050;2022-10-16T07:06:47;8.13;;;2.30;;
14619;SDS011;32125;48.518;9.050;2022-10-16T07:09:14;4.57;;;2.20;;
14619;SDS011;32125;48.518;9.050;2022-10-16T07:11:40;5.83;;;2.27;;
14619;SDS011;32125;48.518;9.050;2022-10-16T07:14:14;9.23;;;2.20;;
14619;SDS011;32125;48.518;9.050;2022-10-16T07:16:41;7.50;;;2.73;;
14619;SDS011;32125;48.518;9.050;2022-10-16T07:19:10;5.23;;;2.10;;
14619;SDS011;32125;48.518;9.050;2022-10-16T07:21:38;6.70;;;2.30;;
14619;SDS011;32125;48.518;9.050;2022-10-16T07:24:05;8.23;;;2.40;;
14619;SDS011;32125;48.518;9.050;2022-10-16T07:26:32;5.40;;;2.43;;
14619;SDS011;32125;48.518;9.050;2022-10-16T07:28:59;5.80;;;2.30;;
14619;SDS011;32125;48.518;9.050;2022-10-16T07:31:26;4.37;;;1.97;;
14619;SDS011;32125;48.518;9.050;2022-10-16T07:33:52;3.10;;;1.80;;
14619;SDS011;32125;48.518;9.050;2022-10-16T07:36:24;8.67;;;2.07;;
14619;SDS011;32125;48.518;9.050;2022-10-16T07:38:50;4.97;;;2.10;;
14619;SDS011;32125;48.518;9.050;2022-10-16T07:41:17;5.20;;;2.00;;
14619;SDS011;32125;48.518;9.050;2022-10-16T07:43:47;2.07;;;1.70;;
14619;SDS011;32125;48.518;9.050;2022-10-16T07:46:13;5.17;;;3.40;;
14619;SDS011;32125;48.518;9.050;2022-10-16T07:48:39;5.67;;;3.30;;
14619;SDS011;32125;48.518;9.050;2022-10-16T07:51:06;6.07;;;2.17;;
14619;SDS011;32125;48.518;9.050;2022-10-16T07:53:32;3.67;;;2.60;;
14619;SDS011;32125;48.518;9.050;2022-10-16T07:56:03;11.03;;;2.47;;
14619;SDS011;32125;48.518;9.050;2022-10-16T07:58:29;5.37;;;2.00;;
14619;SDS011;32125;48.518;9.050;2022-10-16T08:00:56;9.80;;;2.30;;
14619;SDS011;32125;48.518;9.050;2022-10-16T08:03:23;5.27;;;2.07;;
14619;SDS011;32125;48.518;9.050;2022-10-16T08:05:49;4.37;;;2.17;;
14619;SDS011;32125;48.518;9.050;2022-10-16T08:08:16;4.20;;;2.20;;
14619;SDS011;32125;48.518;9.050;2022-10-16T08:10:45;4.07;;;1.97;;
14619;SDS011;32125;48.518;9.050;2022-10-16T08:13:13;4.10;;;2.00;;
14619;SDS011;32125;48.518;9.050;2022-10-16T08:15:40;6.70;;;2.00;;
14619;SDS011;32125;48.518;9.050;2022-10-16T08:18:06;5.93;;;2.10;;
14619;SDS011;32125;48.518;9.050;2022-10-16T08:20:32;6.10;;;2.07;;
14619;SDS011;32125;48.518;9.050;2022-10-16T08:22:59;3.90;;;2.20;;
14619;SDS011;32125;48.518;9.050;2022-10-16T08:25:25;5.00;;;2.38;;
14619;SDS011;32125;48.518;9.050;2022-10-16T08:27:54;3.90;;;2.03;;
14619;SDS011;32125;48.518;9.050;2022-10-16T08:30:21;4.65;;;1.90;;
14619;SDS011;32125;48.518;9.050;2022-10-16T08:32:48;5.15;;;2.30;;
14619;SDS011;32125;48.518;9.050;2022-10-16T08:35:21;4.25;;;2.00;;
14619;SDS011;32125;48.518;9.050;2022-10-16T08:37:47;2.97;;;2.10;;
14619;SDS011;32125;48.518;9.050;2022-10-16T08:40:35;3.28;;;1.90;;
14619;SDS011;32125;48.518;9.050;2022-10-16T08:50:40;4.43;;;2.00;;
14619;SDS011;32125;48.518;9.050;2022-10-16T08:53:09;6.53;;;2.10;;
14619;SDS011;32125;48.518;9.050;2022-10-16T08:55:43;4.03;;;2.05;;
14619;SDS011;32125;48.518;9.050;2022-10-16T08:58:26;4.28;;;1.70;;
14619;SDS011;32125;48.518;9.050;2022-10-16T09:00:55;4.65;;;2.00;;
14619;SDS011;32125;48.518;9.050;2022-10-16T09:22:41;2.72;;;1.60;;
14619;SDS011;32125;48.518;9.050;2022-10-16T09:25:11;7.60;;;1.52;;
14619;SDS011;32125;48.518;9.050;2022-10-16T09:27:38;3.13;;;1.40;;
14619;SDS011;32125;48.518;9.050;2022-10-16T09:30:14;3.30;;;1.13;;
14619;SDS011;32125;48.518;9.050;2022-10-16T09:32:41;1.75;;;1.48;;
14619;SDS011;32125;48.518;9.050;2022-10-16T09:35:14;2.08;;;1.23;;
14619;SDS011;32125;48.518;9.050;2022-10-16T09:37:43;3.15;;;1.40;;
14619;SDS011;32125;48.518;9.050;2022-10-16T09:40:12;3.92;;;1.33;;
14619;SDS011;32125;48.518;9.050;2022-10-16T09:42:48;5.78;;;1.15;;
14619;SDS011;32125;48.518;9.050;2022-10-16T09:45:20;1.50;;;1.35;;
14619;SDS011;32125;48.518;9.050;2022-10-16T09:47:50;1.80;;;1.25;;
14619;SDS011;32125;48.518;9.050;2022-10-16T09:50:20;4.45;;;1.30;;
14619;SDS011;32125;48.518;9.050;2022-10-16T09:52:50;2.15;;;1.25;;
14619;SDS011;32125;48.518;9.050;2022-10-16T09:55:29;2.53;;;1.38;;
14619;SDS011;32125;48.518;9.050;2022-10-16T09:57:55;2.30;;;1.27;;
14619;SDS011;32125;48.518;9.050;2022-10-16T10:00:21;2.35;;;1.40;;
14619;SDS011;32125;48.518;9.050;2022-10-16T10:02:49;2.55;;;1.30;;
14619;SDS011;32125;48.518;9.050;2022-10-16T10:05:22;2.13;;;1.38;;
14619;SDS011;32125;48.518;9.050;2022-10-16T10:07:59;2.05;;;1.42;;
14619;SDS011;32125;48.518;9.050;2022-10-16T10:10:32;1.77;;;1.17;;
14619;SDS011;32125;48.518;9.050;2022-10-16T10:13:01;2.35;;;1.38;;
14619;SDS011;32125;48.518;9.050;2022-10-16T10:15:33;2.88;;;1.23;;
14619;SDS011;32125;48.518;9.050;2022-10-16T10:18:23;2.15;;;1.48;;
14619;SDS011;32125;48.518;9.050;2022-10-16T10:21:02;5.25;;;1.55;;
14619;SDS011;32125;48.518;9.050;2022-10-16T10:23:30;3.97;;;1.35;;
14619;SDS011;32125;48.518;9.050;2022-10-16T10:29:09;2.13;;;1.10;;
14619;SDS011;32125;48.518;9.050;2022-10-16T10:31:48;2.38;;;1.08;;
14619;SDS011;32125;48.518;9.050;2022-10-16T10:37:03;1.70;;;1.10;;
14619;SDS011;32125;48.518;9.050;2022-10-16T10:39:47;2.10;;;1.10;;
14619;SDS011;32125;48.518;9.050;2022-10-16T10:47:47;2.13;;;0.93;;
14619;SDS011;32125;48.518;9.050;2022-10-16T10:58:39;1.63;;;0.90;;
14619;SDS011;32125;48.518;9.050;2022-10-16T11:01:18;6.53;;;1.08;;
14619;SDS011;32125;48.518;9.050;2022-10-16T11:07:34;1.80;;;0.80;;
14619;SDS011;32125;48.518;9.050;2022-10-16T11:10:19;3.22;;;1.00;;
14619;SDS011;32125;48.518;9.050;2022-10-16T11:15:36;2.35;;;1.10;;
14619;SDS011;32125;48.518;9.050;2022-10-16T11:18:05;1.75;;;1.00;;
14619;SDS011;32125;48.518;9.050;2022-10-16T11:20:45;1.05;;;0.88;;
14619;SDS011;32125;48.518;9.050;2022-10-16T11:25:57;1.75;;;0.85;;
14619;SDS011;32125;48.518;9.050;2022-10-16T11:28:37;1.83;;;1.00;;
14619;SDS011;32125;48.518;9.050;2022-10-16T11:31:13;1.58;;;0.80;;
14619;SDS011;32125;48.518;9.050;2022-10-16T11:33:50;1.17;;;0.73;;
14619;SDS011;32125;48.518;9.050;2022-10-16T11:36:31;1.80;;;1.00;;
14619;SDS011;32125;48.518;9.050;2022-10-16T11:39:13;1.58;;;1.00;;
14619;SDS011;32125;48.518;9.050;2022-10-16T11:44:45;2.45;;;0.90;;
14619;SDS011;32125;48.518;9.050;2022-10-16T11:47:51;0.90;;;0.90;;
14619;SDS011;32125;48.518;9.050;2022-10-16T11:50:23;3.50;;;1.10;;
14619;SDS011;32125;48.518;9.050;2022-10-16T11:55:34;2.58;;;0.82;;
14619;SDS011;32125;48.518;9.050;2022-10-16T12:03:22;0.90;;;0.90;;
14619;SDS011;32125;48.518;9.050;2022-10-16T12:08:33;3.42;;;1.10;;
14619;SDS011;32125;48.518;9.050;2022-10-16T12:17:02;1.15;;;1.00;;
14619;SDS011;32125;48.518;9.050;2022-10-16T12:19:33;2.88;;;0.90;;
14619;SDS011;32125;48.518;9.050;2022-10-16T12:22:00;1.48;;;0.98;;
14619;SDS011;32125;48.518;9.050;2022-10-16T12:26:52;3.08;;;0.90;;
14619;SDS011;32125;48.518;9.050;2022-10-16T12:29:28;1.27;;;0.90;;
14619;SDS011;32125;48.518;9.050;2022-10-16T12:32:04;3.15;;;1.10;;
14619;SDS011;32125;48.518;9.050;2022-10-16T12:39:35;2.55;;;1.05;;
14619;SDS011;32125;48.518;9.050;2022-10-16T12:42:05;3.00;;;0.90;;
14619;SDS011;32125;48.518;9.050;2022-10-16T12:44:50;1.70;;;1.00;;
14619;SDS011;32125;48.518;9.050;2022-10-16T12:47:23;1.52;;;0.90;;
14619;SDS011;32125;48.518;9.050;2022-10-16T12:50:02;1.00;;;1.00;;
14619;SDS011;32125;48.518;9.050;2022-10-16T12:55:00;1.38;;;1.10;;
14619;SDS011;32125;48.518;9.050;2022-10-16T13:21:50;4.20;;;1.20;;
14619;SDS011;32125;48.518;9.050;2022-10-16T13:30:27;3.30;;;1.58;;
14619;SDS011;32125;48.518;9.050;2022-10-16T13:33:01;3.92;;;1.27;;
14619;SDS011;32125;48.518;9.050;2022-10-16T13:35:28;2.08;;;1.35;;
14619;SDS011;32125;48.518;9.050;2022-10-16T13:38:29;1.77;;;1.67;;
14619;SDS011;32125;48.518;9.050;2022-10-16T13:40:49;3.70;;;1.70;;
14619;SDS011;32125;48.518;9.050;2022-10-16T13:43:15;1.58;;;1.40;;
14619;SDS011;32125;48.518;9.050;2022-10-16T13:45:41;2.15;;;1.30;;
14619;SDS011;32125;48.518;9.050;2022-10-16T13:48:22;4.60;;;1.38;;
14619;SDS011;32125;48.518;9.050;2022-10-16T13:50:58;1.42;;;1.33;;
14619;SDS011;32125;48.518;9.050;2022-10-16T13:53:30;2.63;;;1.40;;
14619;SDS011;32125;48.518;9.050;2022-10-16T13:55:57;2.38;;;1.33;;
14619;SDS011;32125;48.518;9.050;2022-10-16T13:58:25;2.63;;;1.33;;
14619;SDS011;32125;48.518;9.050;2022-10-16T14:00:55;3.10;;;1.45;;
14619;SDS011;32125;48.518;9.050;2022-10-16T14:03:31;2.08;;;1.35;;
14619;SDS011;32125;48.518;9.050;2022-10-16T14:06:20;3.30;;;1.30;;
14619;SDS011;32125;48.518;9.050;2022-10-16T14:08:54;5.07;;;1.23;;
14619;SDS011;32125;48.518;9.050;2022-10-16T14:11:25;3.05;;;1.40;;
14619;SDS011;32125;48.518;9.050;2022-10-16T14:13:53;4.97;;;1.60;;
14619;SDS011;32125;48.518;9.050;2022-10-16T14:16:30;2.55;;;1.40;;
14619;SDS011;32125;48.518;9.050;2022-10-16T14:19:03;2.33;;;1.48;;
14619;SDS011;32125;48.518;9.050;2022-10-16T14:21:35;4.78;;;1.30;;
14619;SDS011;32125;48.518;9.050;2022-10-16T14:24:12;6.47;;;1.60;;
14619;SDS011;32125;48.518;9.050;2022-10-16T14:26:47;1.70;;;1.40;;
14619;SDS011;32125;48.518;9.050;2022-10-16T14:29:14;6.55;;;1.55;;
14619;SDS011;32125;48.518;9.050;2022-10-16T14:31:43;2.05;;;1.65;;
14619;SDS011;32125;48.518;9.050;2022-10-16T14:34:26;2.97;;;1.52;;
14619;SDS011;32125;48.518;9.050;2022-10-16T14:40:16;3.35;;;1.50;;
14619;SDS011;32125;48.518;9.050;2022-10-16T14:42:44;2.38;;;1.33;;
14619;SDS011;32125;48.518;9.050;2022-10-16T14:45:11;3.38;;;1.58;;
14619;SDS011;32125;48.518;9.050;2022-10-16T14:47:39;2.35;;;1.45;;
14619;SDS011;32125;48.518;9.050;2022-10-16T14:50:13;3.78;;;1.55;;
14619;SDS011;32125;48.518;9.050;2022-10-16T14:52:39;3.17;;;1.48;;
14619;SDS011;32125;48.518;9.050;2022-10-16T14:55:05;3.35;;;1.50;;
14619;SDS011;32125;48.518;9.050;2022-10-16T14:57:33;4.45;;;1.80;;
14619;SDS011;32125;48.518;9.050;2022-10-16T15:00:01;3.10;;;1.80;;
14619;SDS011;32125;48.518;9.050;2022-10-16T15:02:28;1.90;;;1.77;;
14619;SDS011;32125;48.518;9.050;2022-10-16T15:04:55;4.13;;;1.50;;
14619;SDS011;32125;48.518;9.050;2022-10-16T15:07:21;4.82;;;1.58;;
14619;SDS011;32125;48.518;9.050;2022-10-16T15:09:48;2.72;;;1.48;;
14619;SDS011;32125;48.518;9.050;2022-10-16T15:12:15;4.57;;;1.52;;
14619;SDS011;32125;48.518;9.050;2022-10-16T15:14:43;1.90;;;1.40;;
14619;SDS011;32125;48.518;9.050;2022-10-16T15:17:10;2.47;;;1.50;;
14619;SDS011;32125;48.518;9.050;2022-10-16T15:19:44;5.28;;;1.58;;
14619;SDS011;32125;48.518;9.050;2022-10-16T15:22:10;1.90;;;1.60;;
14619;SDS011;32125;48.518;9.050;2022-10-16T15:24:37;5.43;;;1.50;;
14619;SDS011;32125;48.518;9.050;2022-10-16T15:27:03;3.58;;;1.50;;
14619;SDS011;32125;48.518;9.050;2022-10-16T15:29:29;2.50;;;1.50;;
14619;SDS011;32125;48.518;9.050;2022-10-16T15:31:55;1.63;;;1.52;;
14619;SDS011;32125;48.518;9.050;2022-10-16T15:34:21;5.93;;;1.70;;
14619;SDS011;32125;48.518;9.050;2022-10-16T15:36:47;3.47;;;1.70;;
14619;SDS011;32125;48.518;9.050;2022-10-16T15:39:19;4.72;;;1.73;;
14619;SDS011;32125;48.518;9.050;2022-10-16T15:41:48;8.95;;;1.83;;
14619;SDS011;32125;48.518;9.050;2022-10-16T15:44:19;6.85;;;2.05;;
14619;SDS011;32125;48.518;9.050;2022-10-16T15:46:46;7.40;;;2.00;;
14619;SDS011;32125;48.518;9.050;2022-10-16T15:49:12;5.82;;;2.20;;
14619;SDS011;32125;48.518;9.050;2022-10-16T15:51:41;6.78;;;2.80;;
14619;SDS011;32125;48.518;9.050;2022-10-16T15:54:11;2.42;;;2.22;;
14619;SDS011;32125;48.518;9.050;2022-10-16T15:56:39;5.00;;;2.30;;
14619;SDS011;32125;48.518;9.050;2022-10-16T15:59:05;4.32;;;2.25;;
14619;SDS011;32125;48.518;9.050;2022-10-16T16:01:32;5.05;;;2.20;;
14619;SDS011;32125;48.518;9.050;2022-10-16T16:04:00;4.15;;;2.10;;
14619;SDS011;32125;48.518;9.050;2022-10-16T16:06:26;7.32;;;2.58;;
14619;SDS011;32125;48.518;9.050;2022-10-16T16:08:53;5.72;;;2.45;;
14619;SDS011;32125;48.518;9.050;2022-10-16T16:11:20;7.25;;;2.40;;
14619;SDS011;32125;48.518;9.050;2022-10-16T16:13:51;9.40;;;2.97;;
14619;SDS011;32125;48.518;9.050;2022-10-16T16:16:20;6.32;;;2.80;;
14619;SDS011;32125;48.518;9.050;2022-10-16T16:18:46;6.82;;;2.70;;
14619;SDS011;32125;48.518;9.050;2022-10-16T16:21:14;3.78;;;2.15;;
14619;SDS011;32125;48.518;9.050;2022-10-16T16:23:40;4.72;;;2.40;;
14619;SDS011;32125;48.518;9.050;2022-10-16T16:26:14;6.20;;;2.78;;
14619;SDS011;32125;48.518;9.050;2022-10-16T16:28:42;6.07;;;2.78;;
14619;SDS011;32125;48.518;9.050;2022-10-16T16:31:08;2.90;;;2.63;;
14619;SDS011;32125;48.518;9.050;2022-10-16T16:33:37;7.00;;;2.97;;
14619;SDS011;32125;48.518;9.050;2022-10-16T16:36:05;9.18;;;3.40;;
14619;SDS011;32125;48.518;9.050;2022-10-16T16:38:31;8.23;;;3.08;;
14619;SDS011;32125;48.518;9.050;2022-10-16T16:40:57;5.38;;;2.85;;
14619;SDS011;32125;48.518;9.050;2022-10-16T16:43:29;7.90;;;3.17;;
14619;SDS011;32125;48.518;9.050;2022-10-16T16:46:05;10.60;;;4.80;;
14619;SDS011;32125;48.518;9.050;2022-10-16T16:48:34;8.13;;;3.75;;
14619;SDS011;32125;48.518;9.050;2022-10-16T16:51:09;7.90;;;3.47;;
14619;SDS011;32125;48.518;9.050;2022-10-16T16:53:42;8.67;;;3.83;;
14619;SDS011;32125;48.518;9.050;2022-10-16T16:56:14;7.53;;;4.37;;
14619;SDS011;32125;48.518;9.050;2022-10-16T16:58:40;9.27;;;4.17;;
14619;SDS011;32125;48.518;9.050;2022-10-16T17:01:08;8.97;;;4.27;;
14619;SDS011;32125;48.518;9.050;2022-10-16T17:03:35;7.13;;;4.40;;
14619;SDS011;32125;48.518;9.050;2022-10-16T17:06:02;8.37;;;4.77;;
14619;SDS011;32125;48.518;9.050;2022-10-16T17:08:29;7.30;;;3.97;;
14619;SDS011;32125;48.518;9.050;2022-10-16T17:10:58;7.13;;;4.20;;
14619;SDS011;32125;48.518;9.050;2022-10-16T17:13:28;6.20;;;4.10;;
14619;SDS011;32125;48.518;9.050;2022-10-16T17:15:55;8.93;;;4.40;;
14619;SDS011;32125;48.518;9.050;2022-10-16T17:18:21;5.67;;;4.00;;
14619;SDS011;32125;48.518;9.050;2022-10-16T17:20:48;5.53;;;3.93;;
14619;SDS011;32125;48.518;9.050;2022-10-16T17:23:14;8.10;;;3.97;;
14619;SDS011;32125;48.518;9.050;2022-10-16T17:25:42;5.33;;;4.03;;